Kaisei Maru — JD3114 — position and weather

sailwx.info

Track history (hours):
 
Tides and Currents Weather Stations Pressure Air Temp Water Temp Dewpoint Dewpoint Depression Visibility Wind Speed Wind Dir Waves Ship Positions

Kaisei Maru

Last reported at 2014-Aug-23 03:33 UTC. Time now 2014-Aug-23 19:20 UTC.
Position N 34°41' E 135°12'.

Length 52 m; draft 3 m.

Type: Tanker. MMSI: 431001837.

Date/timePositionNaut miles runAvg speedWind from/ knotsBaromVisibWave heightAir tempDewpointWater temp
2014-Aug-23 03:33N 34°41' E 135°12'0 0.0
2014-Aug-23 02:33N 34°41' E 135°12'0 0.0
2014-Aug-23 01:33N 34°41' E 135°12'0 0.0
2014-Aug-23 00:33N 34°41' E 135°12'0 0.0
2014-Aug-22 23:33N 34°41' E 135°12'0 0.0
2014-Aug-22 22:33N 34°41' E 135°12'0 0.0
2014-Aug-22 21:33N 34°41' E 135°12'0 0.0
2014-Aug-22 20:33N 34°41' E 135°12'0 0.0
2014-Aug-22 19:33N 34°41' E 135°12'0 0.0
2014-Aug-22 18:33N 34°41' E 135°12'0 0.0
2014-Aug-22 17:27N 34°41' E 135°12'0 0.0
2014-Aug-22 16:33N 34°41' E 135°12'0 0.0
2014-Aug-22 15:33N 34°41' E 135°12'0 0.0
2014-Aug-22 14:33N 34°41' E 135°12'0 0.0
2014-Aug-22 13:33N 34°41' E 135°12'0 0.0
2014-Aug-22 12:33N 34°41' E 135°12'0 0.0
2014-Aug-22 11:33N 34°41' E 135°12'0 0.0
2014-Aug-22 10:33N 34°41' E 135°12'0 0.0
2014-Aug-22 09:33N 34°41' E 135°12'0 0.0
2014-Aug-22 08:33N 34°41' E 135°12'0 0.0
2014-Aug-22 07:33N 34°41' E 135°12'0 0.0
2014-Aug-22 06:33N 34°41' E 135°12'0 0.0
2014-Aug-22 05:33N 34°41' E 135°12'0 0.0
2014-Aug-22 04:33N 34°41' E 135°12'0 0.0
2014-Aug-22 03:33N 34°41' E 135°12'0 0.0
2014-Aug-22 02:33N 34°41' E 135°12'0 0.0
2014-Aug-22 01:33N 34°41' E 135°12'0 0.0
2014-Aug-22 00:33N 34°41' E 135°12'0 0.0
2014-Aug-21 23:33N 34°41' E 135°12'3 3.3
2014-Aug-21 22:33N 34°39' E 135°16'10 9.5
2014-Aug-21 21:32N 34°35' E 135°05'  
2014-Aug-19 04:33N 35°05' E 138°40'1 0.0
2014-Aug-18 05:16N 35°05' E 138°40'187 8.2
2014-Aug-17 06:33N 34°07' E 135°03'12 9.7
2014-Aug-17 05:21N 34°19' E 135°04'8 9.8
2014-Aug-17 04:33N 34°26' E 135°08'1010.3
2014-Aug-17 03:34N 34°35' E 135°14'6 6.3
2014-Aug-17 02:33N 34°41' E 135°12'0 0.0
2014-Aug-17 01:33N 34°41' E 135°12'0 0.0
2014-Aug-17 00:33N 34°41' E 135°12'0 0.0
2014-Aug-16 23:33N 34°41' E 135°12'0 0.0
2014-Aug-16 22:33N 34°41' E 135°12'0 0.0
2014-Aug-16 21:33N 34°41' E 135°12'0 0.0
2014-Aug-16 20:33N 34°41' E 135°12'0 0.0
2014-Aug-16 19:33N 34°41' E 135°12'0 0.0
2014-Aug-16 18:34N 34°41' E 135°12'0 0.0
2014-Aug-16 17:34N 34°41' E 135°12'0 0.0
2014-Aug-16 16:33N 34°41' E 135°12'0 0.0
2014-Aug-16 15:34N 34°41' E 135°12'0 0.0
2014-Aug-16 14:33N 34°41' E 135°12'0 0.0
2014-Aug-16 13:33N 34°41' E 135°12'0 0.0
2014-Aug-16 12:34N 34°41' E 135°12'0 0.0
2014-Aug-16 11:33N 34°41' E 135°12'0 0.0
2014-Aug-16 10:33N 34°41' E 135°12'0 0.0
2014-Aug-16 09:33N 34°41' E 135°12'0 0.0
2014-Aug-16 08:33N 34°41' E 135°12'0 0.0
2014-Aug-16 07:33N 34°41' E 135°12'0 0.0
2014-Aug-16 06:33N 34°41' E 135°12'0 0.0
2014-Aug-16 05:34N 34°41' E 135°12'0 0.0
2014-Aug-16 04:33N 34°41' E 135°12'0 0.0
2014-Aug-16 03:34N 34°41' E 135°12'0 0.0
2014-Aug-16 02:33N 34°41' E 135°12'0 0.0
2014-Aug-16 01:33N 34°41' E 135°12'0 0.0
2014-Aug-16 00:33N 34°41' E 135°12'0 0.0
2014-Aug-15 23:33N 34°41' E 135°12'0 0.0
2014-Aug-15 22:33N 34°41' E 135°12'0 0.0
2014-Aug-15 21:33N 34°41' E 135°12'0 0.0
2014-Aug-15 20:33N 34°41' E 135°12'0 0.0
2014-Aug-15 19:33N 34°41' E 135°12'0 0.0
2014-Aug-15 18:33N 34°41' E 135°12'0 0.0
2014-Aug-15 17:34N 34°41' E 135°12'0 0.0
2014-Aug-15 16:33N 34°41' E 135°12'0 0.0
2014-Aug-15 15:33N 34°41' E 135°12'0 0.0
2014-Aug-15 14:33N 34°41' E 135°12'0 0.0
2014-Aug-15 13:34N 34°41' E 135°12'0 0.0
2014-Aug-15 12:33N 34°41' E 135°12'0 0.0
2014-Aug-15 11:33N 34°41' E 135°12'0 0.0
2014-Aug-15 10:33N 34°41' E 135°12'0 0.0
2014-Aug-15 09:33N 34°41' E 135°12'0 0.0
2014-Aug-15 08:33N 34°41' E 135°12'0 0.0
2014-Aug-15 07:34N 34°41' E 135°12'0 0.0
2014-Aug-15 06:33N 34°41' E 135°12'0 0.0
2014-Aug-15 05:33N 34°41' E 135°12'0 0.0
2014-Aug-15 04:33N 34°41' E 135°12'0 0.0
2014-Aug-15 03:33N 34°41' E 135°12'0 0.0
2014-Aug-15 02:33N 34°41' E 135°12'0 0.0
2014-Aug-15 01:33N 34°41' E 135°12'0 0.0
2014-Aug-15 00:33N 34°41' E 135°12'0 0.0
2014-Aug-14 23:33N 34°41' E 135°12'0 0.0
2014-Aug-14 22:33N 34°41' E 135°12'0 0.0
2014-Aug-14 21:34N 34°41' E 135°12'0 0.0
2014-Aug-14 20:33N 34°41' E 135°12'0 0.0
2014-Aug-14 19:33N 34°41' E 135°12'0 0.0
2014-Aug-14 18:34N 34°41' E 135°12'0 0.0
2014-Aug-14 17:33N 34°41' E 135°12'0 0.0
2014-Aug-14 16:33N 34°41' E 135°12'0 0.0
2014-Aug-14 15:33N 34°41' E 135°12'0 0.0
2014-Aug-14 14:33N 34°41' E 135°12'0 0.0
2014-Aug-14 13:33N 34°41' E 135°12'0 0.0
2014-Aug-14 12:33N 34°41' E 135°12'0 0.0
2014-Aug-14 11:33N 34°41' E 135°12'0 0.0
2014-Aug-14 10:33N 34°41' E 135°12'0 0.0
2014-Aug-14 09:33N 34°41' E 135°12'0 0.0
2014-Aug-14 08:34N 34°41' E 135°12'0 0.0
2014-Aug-14 07:33N 34°41' E 135°12'0 0.0
2014-Aug-14 06:33N 34°41' E 135°12'0 0.0
2014-Aug-14 05:33N 34°41' E 135°12'0 0.0
2014-Aug-14 04:33N 34°41' E 135°12'0 0.0
2014-Aug-14 03:34N 34°41' E 135°12'0 0.0
2014-Aug-14 02:33N 34°41' E 135°12'0 0.0
2014-Aug-14 01:34N 34°41' E 135°12'0 0.0
2014-Aug-14 00:34N 34°41' E 135°12'0 0.0
2014-Aug-13 23:33N 34°41' E 135°12'0 0.0
2014-Aug-13 22:33N 34°41' E 135°12'0 0.0
2014-Aug-13 21:33N 34°41' E 135°12'0 0.0
2014-Aug-13 20:33N 34°41' E 135°12'0 0.0
2014-Aug-13 19:33N 34°41' E 135°12'0 0.0
2014-Aug-13 18:33N 34°41' E 135°12'0 0.0
2014-Aug-13 17:33N 34°41' E 135°12'0 0.0
2014-Aug-13 16:34N 34°41' E 135°12'0 0.0
2014-Aug-13 15:33N 34°41' E 135°12'0 0.0
2014-Aug-13 14:33N 34°41' E 135°12'0 0.0
2014-Aug-13 13:33N 34°41' E 135°12'0 0.0
2014-Aug-13 12:33N 34°41' E 135°12'0 0.0
2014-Aug-13 11:34N 34°41' E 135°12'0 0.0
2014-Aug-13 10:33N 34°41' E 135°12'0 0.0
2014-Aug-13 09:33N 34°41' E 135°12'0 0.0
2014-Aug-13 08:33N 34°41' E 135°12'0 0.0
2014-Aug-13 07:33N 34°41' E 135°12'0 0.0
2014-Aug-13 06:33N 34°41' E 135°12'0 0.0
2014-Aug-13 05:33N 34°41' E 135°12'0 0.0
2014-Aug-13 04:34N 34°41' E 135°12'0 0.0
2014-Aug-13 03:34N 34°41' E 135°12'  
Track history (hours):
 
Tides and Currents Weather Stations Pressure Air Temp Water Temp Dewpoint Dewpoint Depression Visibility Wind Speed Wind Dir Waves Ship Positions

Kaisei Maru

Last reported at 2014-Aug-23 03:33 UTC. Time now 2014-Aug-23 19:20 UTC.
Position N 34°41' E 135°12'.

Length 52 m; draft 3 m.

Type: Tanker. MMSI: 431001837.

Date/timePositionNaut miles runAvg speedWind from/ knotsBaromVisibWave heightAir tempDewpointWater temp
2014-Aug-23 03:33N 34°41' E 135°12'0 0.0
2014-Aug-23 02:33N 34°41' E 135°12'0 0.0
2014-Aug-23 01:33N 34°41' E 135°12'0 0.0
2014-Aug-23 00:33N 34°41' E 135°12'0 0.0
2014-Aug-22 23:33N 34°41' E 135°12'0 0.0
2014-Aug-22 22:33N 34°41' E 135°12'0 0.0
2014-Aug-22 21:33N 34°41' E 135°12'0 0.0
2014-Aug-22 20:33N 34°41' E 135°12'0 0.0
2014-Aug-22 19:33N 34°41' E 135°12'0 0.0
2014-Aug-22 18:33N 34°41' E 135°12'0 0.0
2014-Aug-22 17:27N 34°41' E 135°12'0 0.0
2014-Aug-22 16:33N 34°41' E 135°12'0 0.0
2014-Aug-22 15:33N 34°41' E 135°12'0 0.0
2014-Aug-22 14:33N 34°41' E 135°12'0 0.0
2014-Aug-22 13:33N 34°41' E 135°12'0 0.0
2014-Aug-22 12:33N 34°41' E 135°12'0 0.0
2014-Aug-22 11:33N 34°41' E 135°12'0 0.0
2014-Aug-22 10:33N 34°41' E 135°12'0 0.0
2014-Aug-22 09:33N 34°41' E 135°12'0 0.0
2014-Aug-22 08:33N 34°41' E 135°12'0 0.0
2014-Aug-22 07:33N 34°41' E 135°12'0 0.0
2014-Aug-22 06:33N 34°41' E 135°12'0 0.0
2014-Aug-22 05:33N 34°41' E 135°12'0 0.0
2014-Aug-22 04:33N 34°41' E 135°12'0 0.0
2014-Aug-22 03:33N 34°41' E 135°12'0 0.0
2014-Aug-22 02:33N 34°41' E 135°12'0 0.0
2014-Aug-22 01:33N 34°41' E 135°12'0 0.0
2014-Aug-22 00:33N 34°41' E 135°12'0 0.0
2014-Aug-21 23:33N 34°41' E 135°12'3 3.3
2014-Aug-21 22:33N 34°39' E 135°16'10 9.5
2014-Aug-21 21:32N 34°35' E 135°05'  
2014-Aug-19 04:33N 35°05' E 138°40'1 0.0
2014-Aug-18 05:16N 35°05' E 138°40'187 8.2
2014-Aug-17 06:33N 34°07' E 135°03'12 9.7
2014-Aug-17 05:21N 34°19' E 135°04'8 9.8
2014-Aug-17 04:33N 34°26' E 135°08'1010.3
2014-Aug-17 03:34N 34°35' E 135°14'6 6.3
2014-Aug-17 02:33N 34°41' E 135°12'0 0.0
2014-Aug-17 01:33N 34°41' E 135°12'0 0.0
2014-Aug-17 00:33N 34°41' E 135°12'0 0.0
2014-Aug-16 23:33N 34°41' E 135°12'0 0.0
2014-Aug-16 22:33N 34°41' E 135°12'0 0.0
2014-Aug-16 21:33N 34°41' E 135°12'0 0.0
2014-Aug-16 20:33N 34°41' E 135°12'0 0.0
2014-Aug-16 19:33N 34°41' E 135°12'0 0.0
2014-Aug-16 18:34N 34°41' E 135°12'0 0.0
2014-Aug-16 17:34N 34°41' E 135°12'0 0.0
2014-Aug-16 16:33N 34°41' E 135°12'0 0.0
2014-Aug-16 15:34N 34°41' E 135°12'0 0.0
2014-Aug-16 14:33N 34°41' E 135°12'0 0.0
2014-Aug-16 13:33N 34°41' E 135°12'0 0.0
2014-Aug-16 12:34N 34°41' E 135°12'0 0.0
2014-Aug-16 11:33N 34°41' E 135°12'0 0.0
2014-Aug-16 10:33N 34°41' E 135°12'0 0.0
2014-Aug-16 09:33N 34°41' E 135°12'0 0.0
2014-Aug-16 08:33N 34°41' E 135°12'0 0.0
2014-Aug-16 07:33N 34°41' E 135°12'0 0.0
2014-Aug-16 06:33N 34°41' E 135°12'0 0.0
2014-Aug-16 05:34N 34°41' E 135°12'0 0.0
2014-Aug-16 04:33N 34°41' E 135°12'0 0.0
2014-Aug-16 03:34N 34°41' E 135°12'0 0.0
2014-Aug-16 02:33N 34°41' E 135°12'0 0.0
2014-Aug-16 01:33N 34°41' E 135°12'0 0.0
2014-Aug-16 00:33N 34°41' E 135°12'0 0.0
2014-Aug-15 23:33N 34°41' E 135°12'0 0.0
2014-Aug-15 22:33N 34°41' E 135°12'0 0.0
2014-Aug-15 21:33N 34°41' E 135°12'0 0.0
2014-Aug-15 20:33N 34°41' E 135°12'0 0.0
2014-Aug-15 19:33N 34°41' E 135°12'0 0.0
2014-Aug-15 18:33N 34°41' E 135°12'0 0.0
2014-Aug-15 17:34N 34°41' E 135°12'0 0.0
2014-Aug-15 16:33N 34°41' E 135°12'0 0.0
2014-Aug-15 15:33N 34°41' E 135°12'0 0.0
2014-Aug-15 14:33N 34°41' E 135°12'0 0.0
2014-Aug-15 13:34N 34°41' E 135°12'0 0.0
2014-Aug-15 12:33N 34°41' E 135°12'0 0.0
2014-Aug-15 11:33N 34°41' E 135°12'0 0.0
2014-Aug-15 10:33N 34°41' E 135°12'0 0.0
2014-Aug-15 09:33N 34°41' E 135°12'0 0.0
2014-Aug-15 08:33N 34°41' E 135°12'0 0.0
2014-Aug-15 07:34N 34°41' E 135°12'0 0.0
2014-Aug-15 06:33N 34°41' E 135°12'0 0.0
2014-Aug-15 05:33N 34°41' E 135°12'0 0.0
2014-Aug-15 04:33N 34°41' E 135°12'0 0.0
2014-Aug-15 03:33N 34°41' E 135°12'0 0.0
2014-Aug-15 02:33N 34°41' E 135°12'0 0.0
2014-Aug-15 01:33N 34°41' E 135°12'0 0.0
2014-Aug-15 00:33N 34°41' E 135°12'0 0.0
2014-Aug-14 23:33N 34°41' E 135°12'0 0.0
2014-Aug-14 22:33N 34°41' E 135°12'0 0.0
2014-Aug-14 21:34N 34°41' E 135°12'0 0.0
2014-Aug-14 20:33N 34°41' E 135°12'0 0.0
2014-Aug-14 19:33N 34°41' E 135°12'0 0.0
2014-Aug-14 18:34N 34°41' E 135°12'0 0.0
2014-Aug-14 17:33N 34°41' E 135°12'0 0.0
2014-Aug-14 16:33N 34°41' E 135°12'0 0.0
2014-Aug-14 15:33N 34°41' E 135°12'0 0.0
2014-Aug-14 14:33N 34°41' E 135°12'0 0.0
2014-Aug-14 13:33N 34°41' E 135°12'0 0.0
2014-Aug-14 12:33N 34°41' E 135°12'0 0.0
2014-Aug-14 11:33N 34°41' E 135°12'0 0.0
2014-Aug-14 10:33N 34°41' E 135°12'0 0.0
2014-Aug-14 09:33N 34°41' E 135°12'0 0.0
2014-Aug-14 08:34N 34°41' E 135°12'0 0.0
2014-Aug-14 07:33N 34°41' E 135°12'0 0.0
2014-Aug-14 06:33N 34°41' E 135°12'0 0.0
2014-Aug-14 05:33N 34°41' E 135°12'0 0.0
2014-Aug-14 04:33N 34°41' E 135°12'0 0.0
2014-Aug-14 03:34N 34°41' E 135°12'0 0.0
2014-Aug-14 02:33N 34°41' E 135°12'0 0.0
2014-Aug-14 01:34N 34°41' E 135°12'0 0.0
2014-Aug-14 00:34N 34°41' E 135°12'0 0.0
2014-Aug-13 23:33N 34°41' E 135°12'0 0.0
2014-Aug-13 22:33N 34°41' E 135°12'0 0.0
2014-Aug-13 21:33N 34°41' E 135°12'0 0.0
2014-Aug-13 20:33N 34°41' E 135°12'0 0.0
2014-Aug-13 19:33N 34°41' E 135°12'0 0.0
2014-Aug-13 18:33N 34°41' E 135°12'0 0.0
2014-Aug-13 17:33N 34°41' E 135°12'0 0.0
2014-Aug-13 16:34N 34°41' E 135°12'0 0.0
2014-Aug-13 15:33N 34°41' E 135°12'0 0.0
2014-Aug-13 14:33N 34°41' E 135°12'0 0.0
2014-Aug-13 13:33N 34°41' E 135°12'0 0.0
2014-Aug-13 12:33N 34°41' E 135°12'0 0.0
2014-Aug-13 11:34N 34°41' E 135°12'0 0.0
2014-Aug-13 10:33N 34°41' E 135°12'0 0.0
2014-Aug-13 09:33N 34°41' E 135°12'0 0.0
2014-Aug-13 08:33N 34°41' E 135°12'0 0.0
2014-Aug-13 07:33N 34°41' E 135°12'0 0.0
2014-Aug-13 06:33N 34°41' E 135°12'0 0.0
2014-Aug-13 05:33N 34°41' E 135°12'0 0.0
2014-Aug-13 04:34N 34°41' E 135°12'0 0.0
2014-Aug-13 03:34N 34°41' E 135°12'  

Dump ship's entire track history